Time;durP1;ratioP1;P1;durP2;ratioP2;P2;SDS_P1;SDS_P2;PMS_P1;PMS_P2;Temp;Humidity;BMP_temperature;BMP_pressure;BME280_temperature;BME280_humidity;BME280_pressure;Samples;Min_cycle;Max_cycle;Signal;HPM_P1;HPM_P2
2022/01/14 00:02:16;;;;;;;43.60;16.90;;;;;;;-3.22;78.00;99121.33;24952;1320;3068124;-67
2022/01/14 00:04:45;;;;;;;48.60;23.00;;;;;;;-3.21;77.63;99116.86;24978;1319;3026982;-66
2022/01/14 00:07:14;;;;;;;38.40;16.50;;;;;;;-3.74;79.97;99106.89;24965;1320;3053059;-67
2022/01/14 00:09:44;;;;;;;42.40;17.80;;;;;;;-3.93;80.68;99107.22;24959;1321;3026506;-65
2022/01/14 00:12:18;;;;;;;36.80;16.40;;;;;;;-3.89;81.24;99104.45;24940;1319;3026879;-65
2022/01/14 00:15:34;;;;;;;39.90;16.70;;;;;;;-3.31;80.32;99102.03;24943;1319;3050006;-65
2022/01/14 00:17:40;;;;;;;28.20;14.50;;;;;;;-3.07;78.50;99094.42;24949;1320;3069940;-66
2022/01/14 00:20:10;;;;;;;34.00;15.90;;;;;;;-2.96;77.97;99096.52;24982;1320;3028567;-66
2022/01/14 00:22:39;;;;;;;44.90;22.50;;;;;;;-3.22;78.44;99089.46;24944;1320;3026469;-68
2022/01/14 00:33:37;;;;;;;34.50;15.60;;;;;;;-2.80;78.47;99070.27;24939;1319;3054106;-67
2022/01/14 00:36:06;;;;;;;38.60;17.90;;;;;;;-2.71;77.71;99060.73;24972;1319;3026771;-66
2022/01/14 00:38:35;;;;;;;39.50;17.20;;;;;;;-2.75;77.79;99061.46;24952;1319;3053857;-65
2022/01/14 00:41:03;;;;;;;38.20;15.40;;;;;;;-2.96;78.08;99060.71;24951;1319;3029034;-65
2022/01/14 00:43:33;;;;;;;49.00;22.20;;;;;;;-3.32;79.47;99044.66;24973;1320;3051409;-68
2022/01/14 00:46:02;;;;;;;37.60;16.80;;;;;;;-3.52;80.83;99034.62;24981;1319;3027234;-69
2022/01/14 00:48:31;;;;;;;37.10;16.40;;;;;;;-3.47;80.91;99037.14;25009;1319;3027070;-68
2022/01/14 00:51:00;;;;;;;31.90;13.80;;;;;;;-3.02;80.26;99049.64;25038;1320;3048776;-66
2022/01/14 00:53:29;;;;;;;25.20;13.60;;;;;;;-2.55;78.88;99025.52;24986;1321;3027069;-67
2022/01/14 00:56:07;;;;;;;37.40;17.40;;;;;;;-2.96;79.12;99037.73;24975;1320;3070766;-65
2022/01/14 01:01:23;;;;;;;49.20;20.40;;;;;;;-3.10;79.63;99041.69;24974;1319;3055474;-70
2022/01/14 01:03:52;;;;;;;49.00;21.20;;;;;;;-3.38;80.97;99036.53;24977;1319;3026590;-67
2022/01/14 01:06:22;;;;;;;29.10;12.20;;;;;;;-3.39;81.88;99040.80;24937;1319;3052362;-67
2022/01/14 01:08:52;;;;;;;55.30;21.30;;;;;;;-2.77;80.11;99029.27;25004;1319;3026728;-66
2022/01/14 01:11:26;;;;;;;36.10;15.40;;;;;;;-2.29;78.44;99017.77;24986;1320;3070165;-66
2022/01/14 01:14:04;;;;;;;48.80;18.60;;;;;;;-2.15;77.08;99026.13;25036;1319;3049820;-67
2022/01/14 01:16:33;;;;;;;49.00;22.00;;;;;;;-2.60;78.44;99015.66;25159;1319;3052282;-66
2022/01/14 01:19:03;;;;;;;45.40;21.10;;;;;;;-2.96;80.06;99021.98;25214;1319;3026549;-67
2022/01/14 01:21:32;;;;;;;49.00;21.40;;;;;;;-2.87;79.41;99020.32;25003;1319;3048783;-65
2022/01/14 01:24:02;;;;;;;45.60;20.20;;;;;;;-3.06;80.74;99020.38;24960;1321;3026519;-66
2022/01/14 01:26:35;;;;;;;41.30;18.20;;;;;;;-2.44;79.78;99010.45;24965;1319;3026755;-64
2022/01/14 01:31:40;;;;;;;35.50;14.80;;;;;;;-1.95;76.86;99003.83;24957;1320;3050257;-65
2022/01/14 01:34:17;;;;;;;32.30;15.80;;;;;;;-2.26;77.85;98991.80;24966;1319;3026320;-66
2022/01/14 01:36:47;;;;;;;43.30;19.90;;;;;;;-2.59;78.83;98983.91;24961;1319;3051737;-66
2022/01/14 01:39:17;;;;;;;50.10;22.90;;;;;;;-2.85;79.94;98979.66;24933;1321;3028062;-66
2022/01/14 01:41:48;;;;;;;39.80;16.60;;;;;;;-3.00;81.50;98967.71;25007;1319;3026568;-66
2022/01/14 01:44:19;;;;;;;40.30;16.60;;;;;;;-2.16;79.40;98957.86;24949;1321;3027569;-65
2022/01/14 01:46:48;;;;;;;35.60;15.40;;;;;;;-1.84;77.82;98948.02;24990;1320;3026937;-66
2022/01/14 01:49:19;;;;;;;41.80;18.50;;;;;;;-1.80;77.05;98954.46;25004;1321;3029484;-67
2022/01/14 01:51:48;;;;;;;46.50;19.40;;;;;;;-2.05;77.32;98943.94;25009;1319;3051535;-69
2022/01/14 01:54:17;;;;;;;41.40;17.00;;;;;;;-2.18;78.15;98959.10;24959;1321;3026475;-68
2022/01/14 01:56:47;;;;;;;45.10;19.40;;;;;;;-2.53;79.22;98946.29;24987;1323;3026577;-65
2022/01/14 01:59:18;;;;;;;39.00;17.70;;;;;;;-2.45;79.53;98956.94;25044;1320;3026240;-65
2022/01/14 02:01:47;;;;;;;48.90;22.60;;;;;;;-1.95;78.14;98934.83;24989;1320;3027569;-66
2022/01/14 02:04:16;;;;;;;40.00;16.20;;;;;;;-1.95;78.42;98939.63;24943;1319;3028853;-64
2022/01/14 02:06:46;;;;;;;39.70;17.90;;;;;;;-1.66;77.21;98932.92;24963;1319;3051593;-66
2022/01/14 02:09:15;;;;;;;43.90;19.00;;;;;;;-2.00;77.83;98923.08;24963;1319;3027520;-65
2022/01/14 02:11:44;;;;;;;53.60;20.60;;;;;;;-2.21;78.84;98916.93;24984;1319;3055222;-66
2022/01/14 02:22:56;;;;;;;62.10;24.30;;;;;;;-1.62;76.46;98889.21;24969;1319;3049403;-67
2022/01/14 02:25:29;;;;;;;40.00;17.60;;;;;;;-1.90;78.09;98886.34;24950;1321;3056435;-65
2022/01/14 02:28:05;;;;;;;46.40;20.60;;;;;;;-1.88;78.08;98884.05;24744;1319;3302460;-65
2022/01/14 02:30:36;;;;;;;45.90;21.40;;;;;;;-2.13;78.31;98883.15;24965;1320;3070505;-66
2022/01/14 02:33:05;;;;;;;44.20;18.60;;;;;;;-2.05;79.10;98878.02;24968;1321;3026594;-66
2022/01/14 02:35:36;;;;;;;36.90;16.80;;;;;;;-1.63;78.36;98877.55;24940;1320;3026896;-66
2022/01/14 02:38:06;;;;;;;44.70;18.10;;;;;;;-1.33;77.27;98859.73;24985;1321;3026329;-66
2022/01/14 02:40:36;;;;;;;60.50;23.90;;;;;;;-1.51;77.32;98853.44;24973;1319;3026504;-65
2022/01/14 02:43:11;;;;;;;48.30;19.00;;;;;;;-1.64;77.78;98853.52;24975;1320;3028640;-65
2022/01/14 02:45:42;;;;;;;58.50;23.70;;;;;;;-1.81;77.95;98846.66;24969;1324;3052949;-67
2022/01/14 02:48:11;;;;;;;53.30;22.20;;;;;;;-1.97;79.51;98831.54;24994;1321;3026263;-64
2022/01/14 02:50:55;;;;;;;60.40;23.10;;;;;;;-1.55;78.93;98824.66;24956;1319;3026469;-66
2022/01/14 02:53:41;;;;;;;36.60;15.40;;;;;;;-1.16;77.47;98818.80;24985;1321;3053356;-67
2022/01/14 02:56:15;;;;;;;57.90;24.90;;;;;;;-1.33;77.48;98825.40;24966;1320;3055337;-66
2022/01/14 02:58:44;;;;;;;59.20;25.00;;;;;;;-1.76;79.20;98797.29;24965;1321;3068181;-64
2022/01/14 03:01:15;;;;;;;54.30;23.00;;;;;;;-1.82;79.41;98803.23;24946;1319;3026617;-66
2022/01/14 03:03:45;;;;;;;46.90;19.20;;;;;;;-1.98;79.86;98800.31;24992;1320;3051704;-66
2022/01/14 03:06:14;;;;;;;47.40;18.00;;;;;;;-1.82;80.25;98798.78;24981;1320;3026539;-70
2022/01/14 03:08:43;;;;;;;66.30;25.60;;;;;;;-0.75;77.71;98783.09;24946;1319;3026458;-68
2022/01/14 03:11:40;;;;;;;48.40;19.60;;;;;;;-1.20;78.07;98780.92;24956;1320;3054406;-67
2022/01/14 03:14:09;;;;;;;57.10;22.50;;;;;;;-1.29;78.63;98775.11;24969;1319;3071209;-67
2022/01/14 03:16:40;;;;;;;48.50;21.00;;;;;;;-1.72;79.79;98768.52;24954;1320;3026656;-69
2022/01/14 03:19:19;;;;;;;39.70;16.70;;;;;;;-1.63;79.69;98779.66;24962;1320;3028491;-66
2022/01/14 03:21:51;;;;;;;40.70;17.70;;;;;;;-1.52;79.66;98777.52;24952;1320;3054182;-66
2022/01/14 03:25:36;;;;;;;46.80;20.50;;;;;;;-1.00;78.44;98762.05;24989;1320;3030110;-67
2022/01/14 03:27:12;;;;;;;54.90;23.90;;;;;;;-1.10;78.44;98751.63;24958;1321;3052665;-66
2022/01/14 03:29:41;;;;;;;44.70;17.40;;;;;;;-1.44;79.93;98750.56;24967;1320;3027733;-67
2022/01/14 03:32:10;;;;;;;49.40;21.90;;;;;;;-1.46;80.14;98761.59;24997;1321;3059465;-65
2022/01/14 03:34:39;;;;;;;38.10;16.60;;;;;;;-1.50;81.50;98753.09;25023;1321;3026672;-65
2022/01/14 03:37:08;;;;;;;45.00;18.40;;;;;;;-1.47;80.40;98739.30;24977;1321;3054483;-66
2022/01/14 03:39:38;;;;;;;47.30;20.90;;;;;;;-1.12;79.56;98742.23;25004;1319;3026767;-66
2022/01/14 03:42:08;;;;;;;36.60;15.80;;;;;;;-0.79;78.70;98735.54;24938;1320;3026388;-66
2022/01/14 03:44:36;;;;;;;41.00;17.40;;;;;;;-0.70;77.42;98733.95;25025;1321;3054090;-67
2022/01/14 03:47:05;;;;;;;60.90;23.90;;;;;;;-0.82;77.39;98729.63;25007;1318;3028274;-65
2022/01/14 03:49:34;;;;;;;49.50;21.50;;;;;;;-1.36;79.61;98724.77;24983;1319;3051813;-66
2022/01/14 03:52:04;;;;;;;49.20;21.10;;;;;;;-1.47;80.05;98721.75;24972;1320;3026310;-67
2022/01/14 03:54:33;;;;;;;35.30;14.10;;;;;;;-1.22;80.30;98704.31;24980;1321;3048961;-67
2022/01/14 03:57:02;;;;;;;46.80;19.80;;;;;;;-0.59;78.26;98698.02;25002;1319;3029424;-67
2022/01/14 03:59:31;;;;;;;55.90;23.40;;;;;;;-0.10;76.55;98696.48;24988;1319;3070554;-68
2022/01/14 04:02:00;;;;;;;57.10;21.40;;;;;;;-0.31;76.78;98688.15;24947;1320;3026592;-66
2022/01/14 04:04:29;;;;;;;60.20;22.40;;;;;;;-0.47;76.91;98682.23;25040;1319;3050690;-67
2022/01/14 04:06:58;;;;;;;71.40;25.90;;;;;;;-0.96;78.49;98677.89;24988;1319;3028127;-65
2022/01/14 04:09:27;;;;;;;59.50;23.10;;;;;;;-1.30;80.11;98675.13;24961;1319;3054703;-65
2022/01/14 04:12:01;;;;;;;48.50;19.20;;;;;;;-1.40;80.94;98663.52;24962;1319;3026881;-63
2022/01/14 04:16:59;;;;;;;37.00;16.20;;;;;;;-0.25;78.03;98643.38;24930;1320;3026959;-65
2022/01/14 04:19:33;;;;;;;33.80;15.10;;;;;;;-0.36;77.01;98633.73;23590;1319;3026606;-68
2022/01/14 04:23:02;;;;;;;50.90;21.00;;;;;;;-0.72;78.34;98633.91;10580;1327;3101888;-70
2022/01/14 04:26:58;;;;;;;;;;;;;;;;;;;;;
2022/01/14 04:30:38;;;;;;;;;;;;;;;;;;;;;
2022/01/14 04:33:56;;;;;;;48.90;21.50;;;;;;;-0.46;79.64;98617.67;9688;1320;3153364;-68
2022/01/14 04:36:27;;;;;;;48.90;21.50;;;;;;;-0.41;78.76;98614.10;11422;1321;3149996;-67
2022/01/14 04:39:22;;;;;;;48.90;21.50;;;;;;;-0.14;77.82;98620.85;8559;1321;3223135;-68
2022/01/14 04:42:11;;;;;;;48.90;21.50;;;;;;;0.20;76.38;98615.35;6732;1320;3162513;-70
2022/01/14 04:48:16;;;;;;;48.90;21.50;;;;;;;1.20;73.58;98607.80;6858;1322;3213775;-67
2022/01/14 04:51:18;;;;;;;48.90;21.50;;;;;;;1.30;72.82;98609.01;5918;1317;3175726;-70
2022/01/14 04:54:19;;;;;;;48.90;21.50;;;;;;;0.94;73.71;98598.90;8845;1318;3185472;-71
2022/01/14 04:57:31;;;;;;;48.90;21.50;;;;;;;1.73;72.29;98602.21;8643;1321;3194108;-69
2022/01/14 05:15:40;;;;;;;53.30;29.00;;;;;;;1.44;73.05;98599.52;7862;1313;3271613;-70
2022/01/14 05:18:12;;;;;;;53.30;29.00;;;;;;;1.16;73.73;98590.85;7268;1314;3176310;-70
2022/01/14 05:21:32;;;;;;;53.30;29.00;;;;;;;1.62;73.00;98596.57;8009;1318;3160960;-69
2022/01/14 05:24:55;;;;;;;53.30;29.00;;;;;;;1.86;72.00;98585.33;4878;1314;3154036;-73
2022/01/14 05:28:21;;;;;;;53.30;29.00;;;;;;;1.53;72.52;98576.92;3360;1316;3110162;-67
2022/01/14 05:32:45;;;;;;;35.10;22.00;;;;;;;1.38;74.06;98581.45;7992;1320;3175757;-70
2022/01/14 05:36:18;;;;;;;33.10;16.10;;;;;;;0.98;75.16;98541.83;12795;1326;3097633;-71
2022/01/14 05:38:51;;;;;;;33.10;16.10;;;;;;;0.51;76.78;98551.06;3704;1329;3207362;-69
2022/01/14 05:41:23;;;;;;;47.80;24.20;;;;;;;0.73;76.31;98529.43;2364;1322;3204485;-70
2022/01/14 05:43:55;;;;;;;47.80;24.20;;;;;;;0.94;75.47;98534.56;2357;1322;3174318;-69
2022/01/14 05:46:27;;;;;;;47.80;24.20;;;;;;;1.24;75.59;98525.02;2474;1325;3148184;-70
2022/01/14 05:49:23;;;;;;;47.80;24.20;;;;;;;1.67;73.63;98529.58;6622;1314;3133315;-69
2022/01/14 05:52:21;;;;;;;45.50;24.80;;;;;;;1.57;73.49;98529.98;6746;1314;3133482;-70
2022/01/14 05:54:53;;;;;;;45.50;24.80;;;;;;;0.83;75.71;98529.94;2725;1321;3149073;-70
2022/01/14 05:57:51;;;;;;;45.50;24.80;;;;;;;0.73;77.96;98519.98;3829;1320;3173842;-71
2022/01/14 06:01:14;;;;;;;45.50;24.80;;;;;;;1.67;74.29;98514.76;8760;1311;3145631;-72
2022/01/14 06:04:01;;;;;;;50.70;31.50;;;;;;;1.79;73.65;98514.27;5954;1318;3162585;-67
2022/01/14 06:06:56;;;;;;;50.70;31.50;;;;;;;1.71;73.33;98506.50;6937;1312;3146564;-71
2022/01/14 06:10:22;;;;;;;41.30;24.30;;;;;;;1.47;74.74;98503.30;8342;1317;3117621;-71
2022/01/14 06:13:51;;;;;;;33.00;16.00;;;;;;;1.68;74.58;98500.02;12632;1318;3115870;-71
2022/01/14 06:17:06;;;;;;;32.40;16.10;;;;;;;1.07;76.43;98490.45;7409;1315;3108448;-70
2022/01/14 06:20:05;;;;;;;32.40;16.10;;;;;;;0.94;76.94;98496.48;7527;1314;3147383;-73
2022/01/14 06:22:43;;;;;;;32.40;16.10;;;;;;;1.00;77.10;98490.73;4234;1313;3158354;-70
2022/01/14 06:25:18;;;;;;;40.00;23.30;;;;;;;1.60;75.91;98477.91;9248;1312;3143531;-72
2022/01/14 06:28:16;;;;;;;34.50;18.60;;;;;;;1.73;74.94;98478.27;9095;1318;3080705;-71
2022/01/14 06:30:51;;;;;;;35.70;18.80;;;;;;;1.38;75.74;98472.21;11320;1316;3075876;-70
2022/01/14 06:33:55;;;;;;;29.90;14.90;;;;;;;0.99;76.99;98462.82;9055;1316;3117125;-71
2022/01/14 06:36:45;;;;;;;21.40;12.70;;;;;;;0.78;77.71;98467.23;12198;1314;3120296;-69
2022/01/14 06:40:11;;;;;;;33.60;15.00;;;;;;;0.85;78.69;98463.70;8652;1314;3121272;-69
2022/01/14 06:47:15;;;;;;;29.60;13.60;;;;;;;1.56;76.03;98446.31;5790;1317;3114687;-72
2022/01/14 06:49:55;;;;;;;15.30;8.70;;;;;;;0.95;77.98;98440.56;6579;1317;3117231;-69
2022/01/14 06:53:18;;;;;;;32.50;16.00;;;;;;;0.92;77.73;98422.72;8848;1312;3141969;-69
2022/01/14 06:56:42;;;;;;;25.60;12.90;;;;;;;0.54;80.85;98416.05;9415;1316;3145024;-71
2022/01/14 06:59:26;;;;;;;18.10;10.30;;;;;;;1.50;77.90;98396.48;8924;1317;3102397;-72
2022/01/14 07:02:31;;;;;;;29.80;15.40;;;;;;;1.77;75.99;98385.38;4340;1315;3113937;-71
2022/01/14 07:05:02;;;;;;;29.80;15.40;;;;;;;1.32;77.03;98389.61;3108;1315;3151792;-69
2022/01/14 07:08:02;;;;;;;29.80;15.40;;;;;;;1.14;78.04;98377.90;4899;1312;3109054;-69
2022/01/14 07:10:51;;;;;;;29.70;17.60;;;;;;;1.52;77.17;98349.98;5167;1312;3125861;-70
2022/01/14 07:14:09;;;;;;;26.90;13.40;;;;;;;1.85;76.06;98352.08;7402;1312;3162415;-69
2022/01/14 07:17:23;;;;;;;32.90;16.20;;;;;;;1.36;77.55;98345.96;6344;1313;3098573;-72
2022/01/14 07:19:57;;;;;;;34.10;16.50;;;;;;;1.11;78.57;98353.55;14856;1311;3113354;-69
2022/01/14 07:22:26;;;;;;;37.80;18.80;;;;;;;1.11;78.48;98342.66;25163;1310;3027666;-66
2022/01/14 07:24:55;;;;;;;36.50;15.70;;;;;;;0.86;79.67;98353.65;25102;1312;3026268;-65
2022/01/14 07:27:24;;;;;;;24.40;12.50;;;;;;;1.24;79.10;98338.88;25177;1312;3026202;-67
2022/01/14 07:29:54;;;;;;;26.20;11.80;;;;;;;1.69;77.72;98339.09;25135;1312;3048743;-68
2022/01/14 07:32:23;;;;;;;30.80;15.30;;;;;;;1.60;77.21;98329.29;25149;1312;3029103;-67
2022/01/14 07:34:52;;;;;;;31.40;15.30;;;;;;;1.52;77.51;98328.76;25174;1312;3026211;-67
2022/01/14 07:37:21;;;;;;;26.60;14.80;;;;;;;1.28;77.98;98338.54;25169;1312;3051358;-68
2022/01/14 07:39:51;;;;;;;27.30;12.80;;;;;;;0.96;79.62;98321.88;25190;1312;3026901;-65
2022/01/14 07:42:20;;;;;;;19.70;10.80;;;;;;;0.98;80.17;98317.33;25158;1310;3026643;-68
2022/01/14 07:44:49;;;;;;;14.90;8.80;;;;;;;1.64;78.73;98311.68;25141;1312;3048850;-66
2022/01/14 07:47:18;;;;;;;18.80;10.00;;;;;;;2.20;76.61;98316.46;25126;1312;3026476;-70
2022/01/14 07:49:47;;;;;;;21.60;11.50;;;;;;;2.09;76.14;98321.48;25135;1312;3070484;-63
2022/01/14 07:52:16;;;;;;;25.80;12.70;;;;;;;1.72;77.22;98319.11;25159;1312;3026929;-66
2022/01/14 07:54:45;;;;;;;22.90;12.50;;;;;;;1.46;77.59;98306.20;25173;1312;3050859;-64
2022/01/14 07:57:14;;;;;;;19.80;10.40;;;;;;;1.39;78.34;98297.71;25153;1312;3026879;-66
2022/01/14 07:59:43;;;;;;;15.70;8.10;;;;;;;1.25;79.22;98296.73;25109;1311;3056680;-67
2022/01/14 08:02:15;;;;;;;18.00;9.80;;;;;;;1.75;78.58;98287.23;25157;1314;3026938;-69
2022/01/14 08:04:44;;;;;;;19.20;10.60;;;;;;;2.26;76.52;98280.11;25186;1312;3049137;-67
2022/01/14 08:07:16;;;;;;;17.60;9.60;;;;;;;2.05;76.12;98268.96;25155;1313;3026521;-68
2022/01/14 08:09:45;;;;;;;17.70;9.80;;;;;;;1.77;77.09;98256.94;25164;1311;3058512;-66
2022/01/14 08:12:14;;;;;;;18.80;10.10;;;;;;;1.66;77.67;98256.19;25152;1312;3027276;-68
2022/01/14 08:14:44;;;;;;;22.40;10.30;;;;;;;1.43;78.38;98233.68;25127;1312;3054470;-66
2022/01/14 08:17:17;;;;;;;18.30;9.00;;;;;;;1.44;78.62;98235.04;25127;1312;3026710;-66
2022/01/14 08:19:46;;;;;;;23.70;9.50;;;;;;;2.15;77.24;98237.95;25128;1312;3054808;-66
2022/01/14 08:22:15;;;;;;;18.50;8.60;;;;;;;2.35;75.75;98229.41;25160;1312;3027052;-65
2022/01/14 08:24:44;;;;;;;14.30;7.90;;;;;;;2.26;75.48;98228.62;25169;1311;3048779;-65
2022/01/14 08:27:12;;;;;;;12.70;8.50;;;;;;;2.06;76.39;98222.13;25179;1312;3027291;-65
2022/01/14 08:29:41;;;;;;;18.80;9.10;;;;;;;1.78;77.13;98204.21;25148;1312;3068076;-66
2022/01/14 08:32:10;;;;;;;17.00;8.70;;;;;;;1.71;77.39;98203.52;25093;1312;3026977;-64
2022/01/14 08:34:40;;;;;;;13.00;7.60;;;;;;;1.80;78.23;98208.75;25180;1312;3053360;-66
2022/01/14 08:37:08;;;;;;;13.50;7.40;;;;;;;2.15;76.78;98199.59;25119;1312;3028525;-66
2022/01/14 08:39:39;;;;;;;16.40;8.50;;;;;;;2.50;75.79;98187.79;25148;1311;3053668;-67
2022/01/14 08:42:12;;;;;;;15.70;8.10;;;;;;;2.35;75.97;98185.86;25140;1312;3027241;-67
2022/01/14 08:44:41;;;;;;;13.80;7.70;;;;;;;1.92;76.93;98169.04;25158;1312;3027174;-67
2022/01/14 08:47:10;;;;;;;15.90;9.80;;;;;;;1.82;77.48;98171.23;25176;1312;3028243;-65
2022/01/14 08:49:40;;;;;;;14.90;7.80;;;;;;;1.65;78.85;98158.70;25168;1312;3051231;-68
2022/01/14 08:52:10;;;;;;;14.00;7.30;;;;;;;2.31;77.08;98146.13;25146;1312;3027993;-66
2022/01/14 08:54:39;;;;;;;14.00;7.10;;;;;;;2.91;75.00;98141.66;25170;1312;3029101;-69
2022/01/14 08:57:08;;;;;;;15.80;6.90;;;;;;;2.89;74.42;98151.45;25211;1312;3029071;-67
2022/01/14 08:59:37;;;;;;;12.80;7.10;;;;;;;2.22;76.12;98149.67;25185;1312;3029679;-66
2022/01/14 09:02:06;;;;;;;9.50;6.20;;;;;;;2.03;77.18;98146.05;25295;1312;3048700;-67
2022/01/14 09:04:36;;;;;;;13.80;7.80;;;;;;;1.96;77.04;98140.39;25493;1312;3026657;-66
2022/01/14 09:07:05;;;;;;;10.30;5.80;;;;;;;1.90;77.60;98137.69;25413;1312;3026372;-67
2022/01/14 09:09:34;;;;;;;14.10;6.10;;;;;;;2.14;77.42;98119.81;25135;1312;3050752;-68
2022/01/14 09:12:23;;;;;;;15.00;7.40;;;;;;;2.44;76.55;98108.21;25127;1312;3051351;-68
2022/01/14 09:15:43;;;;;;;13.30;7.50;;;;;;;2.28;76.75;98094.80;31589;1319;3026234;-66
2022/01/14 09:18:12;;;;;;;15.40;10.60;;;;;;;2.54;75.41;98088.52;25008;1319;3026844;-66
2022/01/14 09:20:41;;;;;;;16.00;9.00;;;;;;;2.39;75.87;98089.77;24975;1319;3026570;-67
2022/01/14 09:23:16;;;;;;;13.00;6.80;;;;;;;2.19;76.96;98081.42;24967;1319;3048876;-66
2022/01/14 09:25:45;;;;;;;;;;;;;;;2.73;76.29;98073.73;24986;1325;3054816;-67
2022/01/14 09:28:13;;;;;;;12.70;6.70;;;;;;;3.12;74.09;98062.05;24900;1322;3191553;-68
2022/01/14 09:30:42;;;;;;;18.30;8.20;;;;;;;2.91;74.59;98060.73;25172;1313;3052311;-66
2022/01/14 09:33:11;;;;;;;20.40;8.00;;;;;;;2.42;75.78;98052.13;25141;1313;3026435;-66
2022/01/14 09:35:40;;;;;;;19.50;9.80;;;;;;;2.41;75.67;98030.75;25116;1313;3070966;-66
2022/01/14 09:38:09;;;;;;;12.80;6.00;;;;;;;2.07;77.33;98029.46;25106;1313;3028937;-67
2022/01/14 09:40:42;;;;;;;17.70;8.40;;;;;;;2.01;77.57;98038.90;25122;1313;3052368;-67
2022/01/14 09:43:14;;;;;;;8.50;4.70;;;;;;;2.39;77.43;98025.79;25128;1313;3027626;-69
2022/01/14 09:45:43;;;;;;;11.00;6.70;;;;;;;2.38;76.75;98005.15;25106;1316;3026487;-68
2022/01/14 09:48:15;;;;;;;17.80;8.00;;;;;;;2.27;77.16;97993.08;25133;1313;3030256;-67
2022/01/14 09:50:44;;;;;;;16.80;8.30;;;;;;;1.91;78.55;97993.13;25176;1312;3068005;-67
2022/01/14 09:53:14;;;;;;;19.00;7.50;;;;;;;2.08;78.12;97993.67;25134;1313;3028579;-66
2022/01/14 09:55:43;;;;;;;12.10;6.60;;;;;;;2.29;77.52;98001.09;25157;1313;3051936;-67
2022/01/14 09:58:12;;;;;;;12.50;6.00;;;;;;;2.67;76.26;97994.14;25124;1313;3027447;-67
2022/01/14 10:00:41;;;;;;;14.40;6.30;;;;;;;2.31;77.19;97981.14;25123;1313;3056411;-67
2022/01/14 10:03:23;;;;;;;10.30;6.10;;;;;;;2.23;77.50;97972.05;25109;1313;3026569;-68
2022/01/14 10:05:55;;;;;;;7.80;5.20;;;;;;;2.36;76.90;97976.56;25104;1316;3052767;-65
2022/01/14 10:08:27;;;;;;;10.50;6.20;;;;;;;2.03;78.05;97958.01;25191;1313;3026048;-68
2022/01/14 10:10:59;;;;;;;10.90;6.10;;;;;;;1.89;79.46;97941.07;25157;1313;3026736;-66
2022/01/14 10:13:31;;;;;;;11.50;6.50;;;;;;;2.46;78.01;97937.16;25150;1313;3027307;-67
2022/01/14 10:16:05;;;;;;;10.30;4.90;;;;;;;2.98;76.06;97945.16;25157;1313;3028421;-65
2022/01/14 10:18:35;;;;;;;;;;;;;;;2.87;75.56;97940.74;25119;1313;3052280;-67
2022/01/14 10:21:06;;;;;;;9.70;4.50;;;;;;;2.66;76.04;97955.84;25125;1313;3028704;-66
2022/01/14 10:23:45;;;;;;;12.30;6.00;;;;;;;2.30;77.07;97943.54;25192;1312;3027172;-68
2022/01/14 10:26:15;;;;;;;8.90;5.00;;;;;;;1.90;78.94;97930.66;25109;1313;3054489;-67
2022/01/14 10:28:57;;;;;;;9.00;5.20;;;;;;;2.22;78.39;97923.17;25206;1312;3026680;-66
2022/01/14 10:31:33;;;;;;;7.30;4.20;;;;;;;2.67;76.77;97902.21;25124;1315;3050639;-67
2022/01/14 10:34:10;;;;;;;10.10;5.60;;;;;;;2.59;76.49;97894.64;25141;1313;3070831;-68
2022/01/14 10:36:44;;;;;;;9.90;5.30;;;;;;;2.50;76.57;97873.02;25083;1313;3053425;-65
2022/01/14 10:39:24;;;;;;;8.90;4.70;;;;;;;2.43;76.37;97886.66;25245;1313;3052776;-66
2022/01/14 10:41:55;;;;;;;14.00;6.80;;;;;;;1.84;78.74;97866.05;25165;1313;3053664;-66
2022/01/14 10:44:29;;;;;;;10.70;6.10;;;;;;;1.82;79.56;97864.05;25149;1313;3026513;-66
2022/01/14 10:47:11;;;;;;;9.90;4.40;;;;;;;2.29;79.16;97869.57;25144;1313;3051301;-66
2022/01/14 10:49:42;;;;;;;7.90;4.50;;;;;;;2.70;76.78;97858.27;25126;1313;3053137;-67
2022/01/14 10:52:22;;;;;;;10.20;5.80;;;;;;;2.36;77.55;97855.77;25154;1313;3026495;-66
2022/01/14 10:54:53;;;;;;;9.60;5.00;;;;;;;2.28;77.96;97846.52;25112;1313;3070878;-66
2022/01/14 10:57:23;;;;;;;9.70;6.40;;;;;;;1.95;79.25;97847.19;25122;1316;3026086;-67
2022/01/14 11:00:12;;;;;;;11.30;4.80;;;;;;;1.95;80.24;97840.10;25180;1313;3026219;-67
2022/01/14 11:02:43;;;;;;;6.10;3.40;;;;;;;2.71;78.41;97828.50;25147;1313;3052241;-66
2022/01/14 11:05:18;;;;;;;9.90;5.20;;;;;;;2.95;76.58;97809.69;25135;1313;3026623;-67
2022/01/14 11:07:47;;;;;;;;;;;;;;;2.54;77.41;97810.58;25136;1313;3049335;-66
2022/01/14 11:10:21;;;;;;;7.10;3.90;;;;;;;2.18;78.88;97829.73;25109;1312;3026258;-67
2022/01/14 11:12:52;;;;;;;11.80;5.40;;;;;;;2.17;79.12;97801.14;25148;1313;3051039;-66
2022/01/14 11:15:22;;;;;;;5.80;3.90;;;;;;;1.97;80.40;97784.60;25192;1312;3026750;-67
2022/01/14 11:17:52;;;;;;;9.00;4.70;;;;;;;2.50;79.53;97801.95;25126;1313;3029291;-65
2022/01/14 11:20:29;;;;;;;6.20;3.80;;;;;;;2.74;78.63;97773.67;25160;1313;3027397;-65
2022/01/14 11:23:16;;;;;;;10.10;6.00;;;;;;;2.84;77.40;97771.92;25109;1313;3052533;-67
2022/01/14 11:25:50;;;;;;;9.00;4.60;;;;;;;2.61;77.77;97764.89;25121;1313;3056743;-68
2022/01/14 11:28:21;;;;;;;;;;;;;;;2.51;78.01;97768.02;25131;1313;3052090;-67
2022/01/14 11:30:49;;;;;;;9.00;4.20;;;;;;;1.97;80.34;97754.51;25147;1313;3028515;-68
2022/01/14 11:33:19;;;;;;;9.10;5.40;;;;;;;2.65;79.84;97745.27;25142;1313;3029616;-65
2022/01/14 11:35:55;;;;;;;5.70;3.20;;;;;;;3.00;77.23;97733.34;25093;1313;3053029;-67
2022/01/14 11:38:42;;;;;;;5.80;3.70;;;;;;;2.95;76.81;97736.86;25138;1313;3052108;-65
2022/01/14 11:41:38;;;;;;;6.20;3.70;;;;;;;2.57;78.02;97730.02;25265;1313;3051118;-66
2022/01/14 11:44:09;;;;;;;7.30;4.20;;;;;;;2.31;79.08;97722.11;25135;1313;3068450;-67
2022/01/14 11:46:42;;;;;;;5.70;2.80;;;;;;;2.12;79.71;97718.48;25146;1313;3026482;-68
2022/01/14 11:49:31;;;;;;;8.80;5.00;;;;;;;2.58;79.02;97690.23;25160;1312;3053926;-65
2022/01/14 11:52:03;;;;;;;15.30;8.10;;;;;;;2.73;78.18;97684.33;25114;1313;3054869;-65
2022/01/14 11:54:45;;;;;;;12.80;5.80;;;;;;;2.67;78.40;97672.77;25096;1313;3027197;-67
2022/01/14 11:57:45;;;;;;;13.20;6.10;;;;;;;2.23;79.64;97678.33;25112;1315;3049500;-66
2022/01/14 12:00:30;;;;;;;13.80;5.30;;;;;;;2.08;80.15;97657.56;25114;1315;3057244;-68
2022/01/14 12:03:13;;;;;;;11.50;4.70;;;;;;;2.23;80.15;97659.67;25133;1316;3053655;-66
2022/01/14 12:06:05;;;;;;;11.80;6.00;;;;;;;2.89;78.20;97669.10;25077;1316;3070818;-68
2022/01/14 12:08:36;;;;;;;12.00;6.30;;;;;;;2.72;78.36;97673.36;25131;1316;3049126;-67
2022/01/14 12:11:05;;;;;;;8.70;3.90;;;;;;;2.44;79.08;97654.35;25136;1315;3026900;-69
2022/01/14 12:13:50;;;;;;;9.10;5.00;;;;;;;2.42;78.90;97655.02;25117;1316;3026683;-69
2022/01/14 12:16:35;;;;;;;6.60;4.40;;;;;;;2.28;79.37;97649.68;25167;1313;3059144;-66
2022/01/14 12:19:07;;;;;;;10.90;5.60;;;;;;;2.75;78.57;97641.38;25126;1313;3052044;-68
2022/01/14 12:21:37;;;;;;;9.10;4.90;;;;;;;2.75;77.85;97641.18;25122;1313;3026214;-66
2022/01/14 12:24:18;;;;;;;10.90;6.40;;;;;;;2.59;78.56;97644.16;25139;1313;3026012;-67
2022/01/14 12:27:11;;;;;;;8.50;5.50;;;;;;;2.57;78.48;97644.48;25119;1313;3052603;-70
2022/01/14 12:29:42;;;;;;;7.80;4.50;;;;;;;2.37;78.79;97641.43;25163;1313;3055913;-71
2022/01/14 12:32:13;;;;;;;6.80;4.50;;;;;;;2.51;79.17;97650.50;25141;1312;3028418;-69
2022/01/14 12:34:45;;;;;;;11.90;6.80;;;;;;;2.91;77.91;97641.27;25132;1313;3026678;-68
2022/01/14 12:37:27;;;;;;;12.20;5.90;;;;;;;2.97;77.03;97620.72;25143;1313;3027438;-68
2022/01/14 12:39:57;;;;;;;7.30;5.00;;;;;;;2.70;77.75;97615.88;25141;1313;3052737;-69
2022/01/14 12:42:26;;;;;;;13.40;5.70;;;;;;;2.59;78.01;97624.51;25131;1313;3026291;-69
2022/01/14 12:44:56;;;;;;;12.30;6.30;;;;;;;2.31;78.66;97601.19;25135;1313;3028752;-65
2022/01/14 12:47:33;;;;;;;9.20;5.30;;;;;;;2.44;78.99;97597.33;25177;1313;3053116;-69
2022/01/14 12:50:05;;;;;;;7.50;4.60;;;;;;;3.14;77.25;97578.00;25162;1313;3053141;-68
2022/01/14 12:52:47;;;;;;;13.10;4.90;;;;;;;3.09;76.41;97596.64;25113;1313;3027317;-69
2022/01/14 12:55:17;;;;;;;9.30;5.90;;;;;;;3.06;75.58;97586.60;25148;1313;3053929;-69